createdAt,value
2018-12-30T00:02:05.101Z,23.27
2018-12-30T00:04:33.707Z,23.00
2018-12-30T00:07:04.202Z,22.83
2018-12-30T00:09:32.681Z,21.83
2018-12-30T00:12:01.401Z,22.80
2018-12-30T00:14:29.851Z,24.20
2018-12-30T00:16:58.526Z,21.17
2018-12-30T00:19:27.242Z,22.53
2018-12-30T00:21:55.912Z,21.60
2018-12-30T00:24:24.594Z,21.17
2018-12-30T00:26:53.308Z,23.17
2018-12-30T00:29:21.956Z,22.77
2018-12-30T00:31:50.642Z,24.17
2018-12-30T00:34:19.393Z,22.97
2018-12-30T00:36:48.024Z,21.77
2018-12-30T00:39:16.718Z,21.47
2018-12-30T00:41:45.809Z,22.03
2018-12-30T00:44:14.399Z,19.13
2018-12-30T00:46:42.981Z,19.90
2018-12-30T00:49:11.674Z,19.70
2018-12-30T00:51:40.352Z,19.23
2018-12-30T00:54:08.627Z,17.70
2018-12-30T00:56:37.332Z,17.83
2018-12-30T00:59:05.991Z,17.60
2018-12-30T01:01:36.168Z,16.97
2018-12-30T01:04:05.029Z,16.60
2018-12-30T01:06:33.582Z,16.50
2018-12-30T01:09:02.461Z,15.80
2018-12-30T01:11:32.283Z,18.27
2018-12-30T01:14:00.959Z,17.97
2018-12-30T01:16:29.639Z,16.70
2018-12-30T01:18:58.067Z,17.60
2018-12-30T01:21:26.617Z,18.70
2018-12-30T01:23:55.281Z,18.87
2018-12-30T01:26:24.050Z,20.33
2018-12-30T01:28:52.873Z,18.63
2018-12-30T01:31:21.249Z,17.90
2018-12-30T01:33:50.056Z,19.37
2018-12-30T01:36:18.564Z,18.27
2018-12-30T01:38:47.197Z,17.30
2018-12-30T01:41:15.930Z,17.57
2018-12-30T01:43:44.562Z,18.80
2018-12-30T01:46:13.262Z,17.07
2018-12-30T01:48:41.962Z,17.83
2018-12-30T01:51:10.430Z,18.27
2018-12-30T01:53:39.104Z,17.03
2018-12-30T01:56:07.503Z,15.83
2018-12-30T01:58:36.270Z,18.50
2018-12-30T02:01:04.854Z,18.67
2018-12-30T02:03:33.449Z,20.40
2018-12-30T02:06:02.105Z,20.50
2018-12-30T02:08:30.604Z,18.87
2018-12-30T02:10:59.413Z,18.93
2018-12-30T02:13:28.588Z,19.60
2018-12-30T02:15:57.462Z,20.80
2018-12-30T02:18:26.180Z,18.67
2018-12-30T02:20:54.853Z,18.70
2018-12-30T02:23:23.535Z,16.97
2018-12-30T02:25:52.443Z,16.40
2018-12-30T02:28:21.122Z,15.47
2018-12-30T02:30:49.498Z,15.80
2018-12-30T02:33:19.982Z,17.87
2018-12-30T02:35:48.704Z,18.47
2018-12-30T02:38:17.402Z,17.73
2018-12-30T02:40:46.282Z,15.77
2018-12-30T02:43:14.765Z,16.53
2018-12-30T02:45:43.448Z,14.60
2018-12-30T02:48:11.850Z,14.63
2018-12-30T02:50:40.937Z,15.83
2018-12-30T02:53:09.593Z,16.23
2018-12-30T02:55:38.303Z,15.07
2018-12-30T02:58:06.962Z,15.10
2018-12-30T03:00:35.470Z,14.97
2018-12-30T03:03:04.364Z,15.67
2018-12-30T03:05:32.827Z,15.40
2018-12-30T03:08:02.534Z,16.27
2018-12-30T03:10:31.237Z,15.63
2018-12-30T03:12:59.485Z,16.57
2018-12-30T03:15:28.477Z,17.73
2018-12-30T03:17:57.695Z,15.73
2018-12-30T03:20:26.058Z,16.37
2018-12-30T03:22:54.451Z,16.53
2018-12-30T03:25:26.783Z,17.97
2018-12-30T03:27:55.393Z,18.50
2018-12-30T03:30:23.763Z,16.73
2018-12-30T03:32:52.487Z,16.77
2018-12-30T03:35:20.730Z,16.97
2018-12-30T03:37:49.417Z,16.43
2018-12-30T03:40:18.410Z,15.13
2018-12-30T03:42:46.789Z,16.07
2018-12-30T03:45:15.475Z,14.83
2018-12-30T03:47:44.178Z,14.10
2018-12-30T03:50:12.850Z,15.07
2018-12-30T03:52:41.533Z,14.93
2018-12-30T03:55:10.242Z,14.23
2018-12-30T03:57:38.897Z,16.70
2018-12-30T04:00:07.595Z,16.20
2018-12-30T04:02:36.301Z,17.00
2018-12-30T04:05:04.662Z,16.10
2018-12-30T04:07:33.239Z,14.43
2018-12-30T04:10:01.948Z,14.00
2018-12-30T04:12:30.613Z,15.07
2018-12-30T04:14:59.298Z,14.47
2018-12-30T04:17:27.857Z,14.30
2018-12-30T04:19:56.466Z,15.07
2018-12-30T04:22:25.154Z,14.57
2018-12-30T04:24:53.865Z,14.43
2018-12-30T04:27:24.368Z,12.40
2018-12-30T04:29:52.840Z,14.83
2018-12-30T04:32:21.560Z,14.53
2018-12-30T04:34:50.217Z,14.30
2018-12-30T04:37:18.614Z,16.03
2018-12-30T04:39:47.213Z,16.33
2018-12-30T04:42:15.842Z,15.43
2018-12-30T04:44:44.801Z,15.90
2018-12-30T04:47:13.477Z,14.87
2018-12-30T04:49:42.122Z,13.93
2018-12-30T04:52:10.599Z,14.83
2018-12-30T04:54:39.309Z,15.57
2018-12-30T04:57:07.758Z,15.67
2018-12-30T04:59:36.145Z,13.83
2018-12-30T05:02:04.657Z,12.77
2018-12-30T05:04:33.423Z,13.50
2018-12-30T05:07:02.101Z,13.63
2018-12-30T05:09:30.798Z,13.07
2018-12-30T05:11:59.474Z,12.57
2018-12-30T05:14:28.165Z,12.97
2018-12-30T05:16:57.073Z,13.07
2018-12-30T05:19:25.438Z,14.97
2018-12-30T05:21:53.718Z,13.50
2018-12-30T05:24:22.303Z,14.43
2018-12-30T05:26:51.020Z,13.40
2018-12-30T05:29:19.660Z,15.13
2018-12-30T05:31:48.380Z,14.37
2018-12-30T05:34:17.029Z,14.13
2018-12-30T05:36:45.416Z,13.00
2018-12-30T05:39:14.016Z,12.43
2018-12-30T05:41:42.665Z,13.00
2018-12-30T05:44:11.358Z,13.63
2018-12-30T05:46:40.276Z,12.53
2018-12-30T05:49:08.931Z,13.17
2018-12-30T05:51:37.626Z,12.37
2018-12-30T05:54:06.325Z,11.40
2018-12-30T05:56:34.794Z,11.57
2018-12-30T05:59:03.170Z,10.80
2018-12-30T06:01:31.765Z,13.23
2018-12-30T06:04:00.429Z,12.67
2018-12-30T06:06:28.706Z,14.17
2018-12-30T06:08:57.411Z,13.90
2018-12-30T06:11:26.073Z,12.83
2018-12-30T06:13:54.823Z,12.47
2018-12-30T06:16:23.484Z,14.43
2018-12-30T06:18:52.400Z,13.47
2018-12-30T06:21:21.017Z,13.57
2018-12-30T06:23:49.781Z,14.00
2018-12-30T06:26:18.393Z,13.33
2018-12-30T06:28:47.085Z,13.13
2018-12-30T06:31:15.782Z,15.47
2018-12-30T06:33:44.445Z,14.27
2018-12-30T06:36:13.129Z,13.60
2018-12-30T06:38:41.861Z,13.63
2018-12-30T06:41:10.511Z,13.63
2018-12-30T06:43:40.216Z,13.13
2018-12-30T06:46:08.721Z,12.67
2018-12-30T06:48:37.397Z,13.03
2018-12-30T06:51:05.644Z,12.07
2018-12-30T06:53:34.424Z,12.60
2018-12-30T06:56:03.046Z,11.27
2018-12-30T06:58:31.725Z,11.47
2018-12-30T07:01:00.427Z,11.97
2018-12-30T07:03:29.298Z,10.90
2018-12-30T07:05:57.698Z,11.67
2018-12-30T07:08:26.753Z,13.37
2018-12-30T07:10:55.038Z,12.53
2018-12-30T07:13:23.336Z,12.37
2018-12-30T07:15:51.721Z,11.93
2018-12-30T07:18:20.372Z,11.53
2018-12-30T07:20:49.050Z,10.57
2018-12-30T07:23:17.783Z,10.93
2018-12-30T07:25:46.434Z,11.43
2018-12-30T07:28:15.113Z,10.00
2018-12-30T07:30:43.819Z,10.30
2018-12-30T07:33:12.490Z,10.57
2018-12-30T07:35:41.392Z,9.80
2018-12-30T07:38:10.102Z,10.60
2018-12-30T07:40:38.744Z,10.13
2018-12-30T07:43:07.424Z,10.97
2018-12-30T07:45:36.125Z,12.67
2018-12-30T07:48:04.803Z,11.60
2018-12-30T07:50:33.485Z,12.33
2018-12-30T07:53:02.207Z,10.97
2018-12-30T07:55:30.561Z,12.03
2018-12-30T07:57:59.051Z,11.80
2018-12-30T08:00:27.642Z,14.07
2018-12-30T08:02:56.306Z,12.90
2018-12-30T08:05:26.453Z,12.70
2018-12-30T08:07:55.041Z,12.10
2018-12-30T08:10:23.694Z,11.90
2018-12-30T08:12:52.185Z,12.27
2018-12-30T08:15:20.781Z,13.03
2018-12-30T08:17:49.442Z,11.83
2018-12-30T08:20:18.150Z,11.70
2018-12-30T08:22:46.849Z,11.37
2018-12-30T08:25:15.081Z,10.47
2018-12-30T08:27:43.783Z,9.90
2018-12-30T08:30:12.751Z,10.70
2018-12-30T08:32:41.349Z,11.00
2018-12-30T08:35:09.753Z,10.70
2018-12-30T08:37:41.635Z,11.90
2018-12-30T08:40:10.286Z,11.77
2018-12-30T08:42:38.975Z,11.63
2018-12-30T08:45:07.694Z,11.47
2018-12-30T08:47:36.341Z,11.70
2018-12-30T08:50:05.034Z,11.67
2018-12-30T08:52:33.745Z,11.73
2018-12-30T08:55:02.466Z,11.27
2018-12-30T08:57:31.279Z,12.47
2018-12-30T09:00:01.829Z,12.10
2018-12-30T09:02:31.554Z,12.00
2018-12-30T09:05:00.289Z,11.67
2018-12-30T09:07:29.444Z,11.63
2018-12-30T09:09:58.023Z,10.83
2018-12-30T09:12:26.854Z,16.40
2018-12-30T09:14:55.256Z,16.40
2018-12-30T09:17:25.890Z,13.20
2018-12-30T09:19:54.852Z,17.17
2018-12-30T09:22:23.252Z,14.37
2018-12-30T09:24:51.938Z,14.00
2018-12-30T09:27:20.454Z,14.90
2018-12-30T09:29:49.104Z,15.03
2018-12-30T09:32:17.793Z,10.80
2018-12-30T09:34:46.513Z,9.80
2018-12-30T09:37:14.751Z,8.83
2018-12-30T09:39:43.454Z,8.53
2018-12-30T09:42:12.141Z,8.20
2018-12-30T09:44:40.614Z,7.57
2018-12-30T09:47:08.987Z,8.13
2018-12-30T09:49:37.302Z,8.27
2018-12-30T09:52:05.625Z,7.43
2018-12-30T09:54:34.330Z,5.57
2018-12-30T09:57:03.117Z,4.27
2018-12-30T09:59:31.923Z,3.40
2018-12-30T10:02:00.506Z,2.87
2018-12-30T10:04:28.907Z,2.60
2018-12-30T10:06:57.567Z,2.30
2018-12-30T10:09:27.280Z,2.90
2018-12-30T10:11:55.679Z,2.60
2018-12-30T10:14:24.259Z,6.03
2018-12-30T10:16:52.939Z,2.73
2018-12-30T10:19:22.629Z,2.10
2018-12-30T10:21:51.311Z,2.10
2018-12-30T10:24:20.021Z,2.13
2018-12-30T10:26:49.207Z,2.00
2018-12-30T10:29:17.812Z,2.00
2018-12-30T10:31:46.288Z,1.90
2018-12-30T10:34:14.987Z,1.67
2018-12-30T10:36:43.649Z,2.10
2018-12-30T10:39:12.335Z,2.10
2018-12-30T10:41:40.649Z,2.30
2018-12-30T10:44:14.616Z,1.97
2018-12-30T10:46:53.197Z,2.80
2018-12-30T10:49:21.623Z,2.90
2018-12-30T10:51:50.305Z,2.50
2018-12-30T10:54:18.598Z,2.30
2018-12-30T10:56:47.787Z,2.50
2018-12-30T10:59:16.546Z,2.63
2018-12-30T11:01:45.253Z,3.10
2018-12-30T11:04:13.928Z,2.80
2018-12-30T11:06:42.681Z,3.00
2018-12-30T11:09:11.315Z,3.70
2018-12-30T11:11:39.982Z,4.50
2018-12-30T11:14:08.459Z,3.50
2018-12-30T11:16:37.154Z,2.70
2018-12-30T11:19:05.834Z,2.47
2018-12-30T11:21:34.517Z,2.33
2018-12-30T11:24:08.568Z,2.00
2018-12-30T11:26:34.148Z,2.30
2018-12-30T11:29:02.830Z,2.67
2018-12-30T11:31:31.872Z,2.50
2018-12-30T11:34:00.487Z,2.13
2018-12-30T11:36:28.980Z,2.23
2018-12-30T11:38:58.636Z,2.10
2018-12-30T11:41:27.325Z,2.57
2018-12-30T11:43:55.938Z,2.00
2018-12-30T11:46:25.741Z,2.30
2018-12-30T11:48:54.356Z,1.70
2018-12-30T11:51:23.814Z,1.50
2018-12-30T11:53:52.169Z,1.60
2018-12-30T11:56:20.608Z,1.70
2018-12-30T11:58:49.293Z,1.50
2018-12-30T12:01:17.695Z,4.10
2018-12-30T12:03:46.258Z,5.40
2018-12-30T12:06:14.942Z,5.47
2018-12-30T12:08:43.242Z,3.77
2018-12-30T12:11:11.898Z,2.70
2018-12-30T12:13:40.391Z,2.80
2018-12-30T12:16:08.785Z,2.90
2018-12-30T12:18:37.335Z,9.60
2018-12-30T12:21:06.025Z,3.70
2018-12-30T12:23:35.354Z,3.47
2018-12-30T12:26:04.009Z,3.40
2018-12-30T12:28:34.778Z,4.30
2018-12-30T12:31:12.916Z,3.90
2018-12-30T12:33:42.170Z,3.70
2018-12-30T12:36:10.431Z,3.77
2018-12-30T12:38:39.132Z,3.20
2018-12-30T12:41:07.412Z,3.00
2018-12-30T12:43:36.078Z,2.60
2018-12-30T12:46:06.210Z,3.10
2018-12-30T12:48:34.491Z,3.10
2018-12-30T12:51:03.149Z,3.20
2018-12-30T12:53:31.916Z,2.97
2018-12-30T12:56:00.138Z,3.30
2018-12-30T12:58:28.586Z,2.90
2018-12-30T13:00:58.009Z,3.20
2018-12-30T13:03:26.401Z,2.80
2018-12-30T13:05:55.051Z,2.77
2018-12-30T13:08:23.336Z,5.20
2018-12-30T13:10:52.050Z,3.37
2018-12-30T13:13:20.504Z,6.17
2018-12-30T13:15:48.884Z,11.57
2018-12-30T13:18:17.206Z,34.47
2018-12-30T13:20:45.330Z,4.00
2018-12-30T13:23:17.950Z,3.93
2018-12-30T13:25:47.231Z,6.10
2018-12-30T13:28:15.923Z,4.00
2018-12-30T13:30:46.394Z,3.93
2018-12-30T13:33:14.930Z,4.20
2018-12-30T13:35:43.754Z,4.00
2018-12-30T13:38:12.302Z,4.30
2018-12-30T13:40:40.869Z,3.90
2018-12-30T13:43:09.449Z,4.10
2018-12-30T13:45:37.842Z,3.77
2018-12-30T13:48:06.315Z,4.00
2018-12-30T13:50:36.737Z,4.60
2018-12-30T13:53:05.145Z,4.87
2018-12-30T13:55:33.657Z,4.27
2018-12-30T13:58:02.058Z,4.47
2018-12-30T14:00:30.894Z,4.73
2018-12-30T14:02:59.707Z,5.00
2018-12-30T14:05:28.658Z,4.50
2018-12-30T14:07:57.056Z,3.70
2018-12-30T14:10:25.605Z,4.20
2018-12-30T14:12:54.090Z,4.63
2018-12-30T14:15:22.707Z,6.60
2018-12-30T14:17:51.665Z,7.43
2018-12-30T14:20:20.542Z,4.47
2018-12-30T14:22:58.043Z,3.70
2018-12-30T14:25:27.087Z,3.80
2018-12-30T14:27:55.786Z,3.33
2018-12-30T14:30:23.919Z,4.00
2018-12-30T14:32:52.879Z,4.30
2018-12-30T14:35:21.484Z,4.53
2018-12-30T14:37:49.882Z,4.50
2018-12-30T14:40:18.441Z,4.43
2018-12-30T14:42:47.813Z,11.50
2018-12-30T14:45:16.780Z,9.37
2018-12-30T14:47:45.307Z,5.83
2018-12-30T14:50:13.795Z,5.50
2018-12-30T14:52:43.322Z,6.80
2018-12-30T14:55:11.558Z,6.27
2018-12-30T14:57:40.378Z,5.73
2018-12-30T15:00:09.155Z,5.23
2018-12-30T15:02:38.244Z,5.57
2018-12-30T15:05:06.911Z,3.67
2018-12-30T15:07:35.614Z,3.50
2018-12-30T15:10:04.177Z,3.20
2018-12-30T15:12:32.674Z,2.87
2018-12-30T15:15:01.290Z,3.60
2018-12-30T15:17:29.930Z,3.87
2018-12-30T15:19:58.898Z,6.00
2018-12-30T15:22:27.518Z,5.97
2018-12-30T15:24:56.188Z,5.80
2018-12-30T15:27:24.889Z,5.60
2018-12-30T15:29:53.284Z,7.50
2018-12-30T15:32:21.845Z,6.30
2018-12-30T15:34:50.104Z,5.50
2018-12-30T15:37:19.321Z,5.13
2018-12-30T15:39:47.902Z,5.10
2018-12-30T15:42:18.983Z,5.30
2018-12-30T15:44:46.926Z,5.70
2018-12-30T15:47:15.179Z,4.80
2018-12-30T15:49:43.880Z,5.20
2018-12-30T15:52:12.574Z,5.80
2018-12-30T15:54:44.107Z,5.43
2018-12-30T15:57:12.632Z,5.57
2018-12-30T15:59:40.974Z,6.00
2018-12-30T16:02:09.546Z,7.80
2018-12-30T16:04:38.253Z,6.57
2018-12-30T16:07:06.610Z,8.13
2018-12-30T16:09:35.199Z,9.40
2018-12-30T16:12:03.897Z,8.10
2018-12-30T16:14:32.373Z,8.20
2018-12-30T16:17:01.050Z,7.47
2018-12-30T16:19:29.470Z,8.57
2018-12-30T16:21:58.025Z,7.63
2018-12-30T16:24:26.508Z,6.03
2018-12-30T16:26:55.218Z,9.50
2018-12-30T16:29:23.862Z,12.43
2018-12-30T16:31:52.901Z,10.10
2018-12-30T16:34:21.176Z,16.93
2018-12-30T16:36:49.417Z,11.37
2018-12-30T16:39:18.231Z,7.03
2018-12-30T16:41:47.172Z,4.90
2018-12-30T16:44:15.702Z,6.07
2018-12-30T16:46:44.252Z,6.10
2018-12-30T16:49:12.957Z,4.80
2018-12-30T16:51:41.423Z,5.07
2018-12-30T16:54:10.123Z,5.70
2018-12-30T16:56:44.559Z,4.97
2018-12-30T16:59:13.217Z,8.10
2018-12-30T17:01:41.914Z,6.87
2018-12-30T17:04:10.312Z,7.60
2018-12-30T17:06:38.859Z,8.13
2018-12-30T17:09:07.954Z,7.40
2018-12-30T17:11:36.662Z,6.57
2018-12-30T17:14:04.915Z,7.30
2018-12-30T17:16:33.601Z,5.00
2018-12-30T17:19:02.324Z,15.23
2018-12-30T17:21:30.671Z,14.73
2018-12-30T17:23:59.461Z,17.03
2018-12-30T17:26:28.183Z,13.63
2018-12-30T17:28:58.740Z,7.43
2018-12-30T17:31:27.150Z,6.10
2018-12-30T17:33:55.850Z,5.70
2018-12-30T17:36:24.215Z,4.90
2018-12-30T17:38:52.696Z,6.43
2018-12-30T17:41:21.096Z,5.90
2018-12-30T17:43:49.759Z,15.13
2018-12-30T17:46:18.707Z,29.20
2018-12-30T17:48:47.267Z,17.67
2018-12-30T17:51:15.804Z,10.23
2018-12-30T17:53:44.494Z,12.27
2018-12-30T17:56:13.204Z,9.17
2018-12-30T17:58:42.502Z,5.87
2018-12-30T18:01:10.853Z,6.40
2018-12-30T18:03:39.473Z,7.53
2018-12-30T18:06:08.126Z,5.70
2018-12-30T18:08:36.813Z,7.83
2018-12-30T18:11:05.520Z,8.10
2018-12-30T18:13:34.181Z,9.83
2018-12-30T18:16:02.449Z,10.93
2018-12-30T18:18:32.195Z,9.83
2018-12-30T18:21:00.855Z,5.80
2018-12-30T18:23:29.123Z,6.50
2018-12-30T18:25:58.761Z,8.10
2018-12-30T18:28:27.531Z,12.80
2018-12-30T18:30:56.421Z,8.50
2018-12-30T18:33:24.819Z,7.77
2018-12-30T18:35:53.426Z,7.43
2018-12-30T18:38:22.066Z,6.50
2018-12-30T18:40:50.785Z,6.40
2018-12-30T18:43:19.142Z,5.50
2018-12-30T18:45:47.532Z,5.93
2018-12-30T18:48:18.092Z,5.90
2018-12-30T18:50:46.741Z,5.83
2018-12-30T18:53:15.439Z,5.97
2018-12-30T18:55:43.823Z,6.83
2018-12-30T18:58:12.523Z,7.10
2018-12-30T19:00:42.221Z,9.20
2018-12-30T19:03:11.021Z,10.37
2018-12-30T19:05:39.672Z,6.90
2018-12-30T19:08:08.179Z,10.43
2018-12-30T19:10:37.583Z,14.97
2018-12-30T19:13:06.142Z,22.17
2018-12-30T19:15:34.981Z,24.37
2018-12-30T19:18:04.065Z,23.27
2018-12-30T19:20:32.385Z,22.40
2018-12-30T19:23:01.106Z,20.83
2018-12-30T19:25:30.046Z,20.70
2018-12-30T19:27:58.919Z,13.60
2018-12-30T19:30:28.130Z,13.33
2018-12-30T19:32:56.857Z,12.70
2018-12-30T19:35:30.069Z,15.67
2018-12-30T19:38:03.349Z,14.27
2018-12-30T19:40:32.847Z,11.60
2018-12-30T19:43:02.923Z,11.37
2018-12-30T19:45:33.556Z,11.10
2018-12-30T19:48:02.373Z,12.37
2018-12-30T19:50:32.066Z,12.70
2018-12-30T19:53:03.281Z,15.43
2018-12-30T19:55:35.712Z,26.33
2018-12-30T19:58:06.514Z,44.20
2018-12-30T20:00:35.029Z,37.07
2018-12-30T20:03:11.467Z,27.20
2018-12-30T20:05:40.782Z,15.80
2018-12-30T20:08:10.208Z,16.87
2018-12-30T20:10:39.328Z,12.50
2018-12-30T20:13:09.225Z,11.73
2018-12-30T20:15:38.120Z,10.13
2018-12-30T20:18:06.763Z,11.60
2018-12-30T20:20:35.474Z,10.17
2018-12-30T20:23:04.171Z,14.00
2018-12-30T20:25:32.517Z,12.00
2018-12-30T20:28:01.004Z,13.23
2018-12-30T20:30:29.816Z,14.63
2018-12-30T20:32:58.880Z,13.03
2018-12-30T20:35:27.769Z,11.33
2018-12-30T20:37:56.487Z,11.07
2018-12-30T20:40:25.148Z,12.87
2018-12-30T20:42:53.829Z,11.57
2018-12-30T20:45:23.273Z,11.50
2018-12-30T20:47:51.715Z,12.23
2018-12-30T20:50:20.295Z,11.23
2018-12-30T20:52:49.018Z,10.10
2018-12-30T20:55:17.675Z,10.00
2018-12-30T20:57:45.943Z,11.27
2018-12-30T21:00:15.498Z,14.40
2018-12-30T21:02:43.909Z,19.20
2018-12-30T21:05:18.566Z,18.73
2018-12-30T21:07:48.094Z,15.97
2018-12-30T21:10:16.994Z,14.93
2018-12-30T21:12:45.664Z,13.10
2018-12-30T21:15:15.558Z,13.07
2018-12-30T21:17:44.229Z,12.63
2018-12-30T21:20:12.957Z,14.27
2018-12-30T21:22:41.598Z,10.77
2018-12-30T21:25:09.678Z,12.80
2018-12-30T21:27:38.398Z,11.43
2018-12-30T21:30:07.666Z,11.00
2018-12-30T21:32:35.940Z,14.20
2018-12-30T21:35:04.675Z,15.20
2018-12-30T21:37:33.007Z,16.30
2018-12-30T21:40:01.788Z,16.90
2018-12-30T21:42:30.490Z,15.40
2018-12-30T21:44:59.157Z,12.90
2018-12-30T21:47:27.826Z,11.63
2018-12-30T21:49:56.561Z,13.37
2018-12-30T21:52:25.206Z,13.13
2018-12-30T21:54:53.871Z,13.20
2018-12-30T21:57:22.388Z,13.27
2018-12-30T21:59:50.630Z,12.57
2018-12-30T22:02:19.350Z,10.70
2018-12-30T22:04:48.046Z,10.97
2018-12-30T22:07:17.104Z,12.00
2018-12-30T22:09:47.022Z,10.63
2018-12-30T22:12:15.728Z,11.60
2018-12-30T22:14:44.394Z,11.57
2018-12-30T22:17:13.095Z,10.97
2018-12-30T22:19:42.382Z,10.80
2018-12-30T22:22:11.096Z,14.00
2018-12-30T22:24:39.572Z,12.67
2018-12-30T22:27:08.454Z,12.23
2018-12-30T22:29:36.888Z,12.30
2018-12-30T22:32:05.602Z,11.37
2018-12-30T22:34:33.914Z,11.67
2018-12-30T22:37:02.678Z,12.63
2018-12-30T22:39:31.279Z,20.50
2018-12-30T22:41:59.962Z,25.93
2018-12-30T22:44:28.449Z,20.63
2018-12-30T22:46:57.411Z,16.93
2018-12-30T22:49:26.244Z,15.63
2018-12-30T22:51:54.893Z,14.10
2018-12-30T22:54:23.602Z,13.53
2018-12-30T22:56:51.875Z,12.93
2018-12-30T22:59:20.230Z,10.47
2018-12-30T23:01:49.831Z,9.63
2018-12-30T23:04:18.547Z,9.57
2018-12-30T23:06:46.899Z,10.17
2018-12-30T23:09:15.398Z,10.27
2018-12-30T23:11:43.989Z,10.40
2018-12-30T23:14:12.748Z,11.43
2018-12-30T23:16:41.331Z,11.03
2018-12-30T23:19:09.742Z,10.10
2018-12-30T23:21:38.089Z,10.03
2018-12-30T23:24:06.773Z,10.53
2018-12-30T23:26:35.398Z,11.43
2018-12-30T23:29:03.649Z,10.00
2018-12-30T23:31:32.218Z,11.10
2018-12-30T23:34:00.945Z,9.93
2018-12-30T23:36:29.582Z,9.17
2018-12-30T23:38:58.274Z,9.30
2018-12-30T23:41:26.979Z,9.97
2018-12-30T23:43:55.342Z,9.60
2018-12-30T23:46:23.710Z,11.00
2018-12-30T23:48:52.115Z,11.87
2018-12-30T23:51:20.674Z,11.23
2018-12-30T23:53:49.359Z,10.90
2018-12-30T23:56:18.053Z,11.03
2018-12-30T23:58:46.930Z,11.80
